createdAt,value
2023-08-12T00:02:07.172Z,9.70
2023-08-12T00:04:35.255Z,8.68
2023-08-12T00:07:03.283Z,12.50
2023-08-12T00:09:31.312Z,10.52
2023-08-12T00:11:59.635Z,12.23
2023-08-12T00:14:29.088Z,7.85
2023-08-12T00:16:57.231Z,6.55
2023-08-12T00:19:25.279Z,6.07
2023-08-12T00:21:53.903Z,8.18
2023-08-12T00:24:21.918Z,6.07
2023-08-12T00:26:50.534Z,9.63
2023-08-12T00:29:18.563Z,8.80
2023-08-12T00:31:48.194Z,7.43
2023-08-12T00:34:16.239Z,6.55
2023-08-12T00:36:44.336Z,6.55
2023-08-12T00:39:12.488Z,6.90
2023-08-12T00:41:40.540Z,6.47
2023-08-12T00:44:09.021Z,7.35
2023-08-12T00:46:38.911Z,8.07
2023-08-12T00:49:08.491Z,8.20
2023-08-12T00:51:37.512Z,7.65
2023-08-12T00:54:07.568Z,7.85
2023-08-12T00:56:37.411Z,10.23
2023-08-12T00:59:09.906Z,6.10
2023-08-12T01:01:40.363Z,8.30
2023-08-12T01:04:10.083Z,5.32
2023-08-12T01:06:38.544Z,6.03
2023-08-12T01:09:08.227Z,5.93
2023-08-12T01:11:42.570Z,7.65
2023-08-12T01:14:15.791Z,7.22
2023-08-12T01:16:48.548Z,7.68
2023-08-12T01:19:25.859Z,6.07
2023-08-12T01:21:58.420Z,7.53
2023-08-12T01:24:28.334Z,5.93
2023-08-12T01:27:04.334Z,6.65
2023-08-12T01:29:32.803Z,7.95
2023-08-12T01:32:09.441Z,6.93
2023-08-12T01:34:44.828Z,6.60
2023-08-12T01:37:19.123Z,7.55
2023-08-12T01:39:50.544Z,7.20
2023-08-12T01:42:20.699Z,8.23
2023-08-12T01:44:49.045Z,7.90
2023-08-12T01:47:17.442Z,7.95
2023-08-12T01:49:45.540Z,6.50
2023-08-12T01:52:13.627Z,6.00
2023-08-12T01:54:41.677Z,5.53
2023-08-12T01:57:11.483Z,6.05
2023-08-12T01:59:39.987Z,5.53
2023-08-12T02:02:08.039Z,6.00
2023-08-12T02:04:37.813Z,6.03
2023-08-12T02:07:06.208Z,6.30
2023-08-12T02:09:34.273Z,5.50
2023-08-12T02:12:02.413Z,6.53
2023-08-12T02:14:31.799Z,6.15
2023-08-12T02:16:59.870Z,5.90
2023-08-12T02:19:28.007Z,6.43
2023-08-12T02:21:56.100Z,5.47
2023-08-12T02:24:24.234Z,6.13
2023-08-12T02:26:52.339Z,8.30
2023-08-12T02:29:29.420Z,6.13
2023-08-12T02:31:58.928Z,5.15
2023-08-12T02:34:27.022Z,5.30
2023-08-12T02:36:55.108Z,6.72
2023-08-12T02:39:23.140Z,5.45
2023-08-12T02:41:51.211Z,8.43
2023-08-12T02:44:19.618Z,5.88
2023-08-12T02:46:47.816Z,6.65
2023-08-12T02:49:17.218Z,6.05
2023-08-12T02:51:45.322Z,6.43
2023-08-12T02:54:13.362Z,5.72
2023-08-12T02:56:41.521Z,6.03
2023-08-12T02:59:09.508Z,5.75
2023-08-12T03:01:38.662Z,5.65
2023-08-12T03:04:07.543Z,5.88
2023-08-12T03:06:36.982Z,6.70
2023-08-12T03:09:05.263Z,8.43
2023-08-12T03:11:33.451Z,6.13
2023-08-12T03:14:01.453Z,6.40
2023-08-12T03:16:29.563Z,8.48
2023-08-12T03:18:57.639Z,5.82
2023-08-12T03:21:25.693Z,4.97
2023-08-12T03:23:55.796Z,6.10
2023-08-12T03:26:23.804Z,7.18
2023-08-12T03:28:51.923Z,6.03
2023-08-12T03:31:22.144Z,8.32
2023-08-12T03:33:50.183Z,8.35
2023-08-12T03:36:18.168Z,5.30
2023-08-12T03:38:46.210Z,6.25
2023-08-12T03:41:15.605Z,6.50
2023-08-12T03:43:43.722Z,6.10
2023-08-12T03:46:11.807Z,6.50
2023-08-12T03:48:39.888Z,6.30
2023-08-12T03:51:07.929Z,7.20
2023-08-12T03:53:36.808Z,6.07
2023-08-12T03:56:05.181Z,5.60
2023-08-12T03:58:34.658Z,6.60
2023-08-12T04:01:03.097Z,5.45
2023-08-12T04:03:31.213Z,6.80
2023-08-12T04:05:59.295Z,6.05
2023-08-12T04:08:27.496Z,7.22
2023-08-12T04:10:55.827Z,5.88
2023-08-12T04:13:25.017Z,6.20
2023-08-12T04:15:55.261Z,9.82
2023-08-12T04:18:23.410Z,7.03
2023-08-12T04:20:52.097Z,6.32
2023-08-12T04:23:20.534Z,6.78
2023-08-12T04:25:49.374Z,7.05
2023-08-12T04:28:18.085Z,8.07
2023-08-12T04:30:47.756Z,6.57
2023-08-12T04:33:17.244Z,6.93
2023-08-12T04:35:45.589Z,8.13
2023-08-12T04:38:13.763Z,6.47
2023-08-12T04:40:42.681Z,9.63
2023-08-12T04:43:10.960Z,5.85
2023-08-12T04:45:41.986Z,6.22
2023-08-12T04:48:11.948Z,7.32
2023-08-12T04:50:41.576Z,6.45
2023-08-12T04:53:09.598Z,5.15
2023-08-12T04:55:37.777Z,6.32
2023-08-12T04:58:06.198Z,5.75
2023-08-12T05:00:34.681Z,6.15
2023-08-12T05:03:03.073Z,5.72
2023-08-12T05:05:31.128Z,6.15
2023-08-12T05:08:00.795Z,5.90
2023-08-12T05:10:28.858Z,6.57
2023-08-12T05:12:59.498Z,7.30
2023-08-12T05:15:27.579Z,6.50
2023-08-12T05:17:55.722Z,5.60
2023-08-12T05:20:23.775Z,7.68
2023-08-12T05:22:51.911Z,7.20
2023-08-12T05:25:21.344Z,8.63
2023-08-12T05:27:49.566Z,6.30
2023-08-12T05:30:19.557Z,8.00
2023-08-12T05:32:47.612Z,7.57
2023-08-12T05:35:15.885Z,6.70
2023-08-12T05:37:44.021Z,7.75
2023-08-12T05:40:12.839Z,6.00
2023-08-12T05:42:42.269Z,6.30
2023-08-12T05:45:11.889Z,5.35
2023-08-12T05:47:40.006Z,5.70
2023-08-12T05:50:08.981Z,5.70
2023-08-12T05:52:37.194Z,6.85
2023-08-12T05:55:06.112Z,9.43
2023-08-12T05:57:34.184Z,6.40
2023-08-12T06:00:03.840Z,6.28
2023-08-12T06:02:31.916Z,7.95
2023-08-12T06:05:00.281Z,7.60
2023-08-12T06:07:28.399Z,8.05
2023-08-12T06:09:56.389Z,6.65
2023-08-12T06:12:24.386Z,7.35
2023-08-12T06:14:52.466Z,9.43
2023-08-12T06:17:21.866Z,7.38
2023-08-12T06:19:49.888Z,10.32
2023-08-12T06:22:17.958Z,9.93
2023-08-12T06:24:46.009Z,6.80
2023-08-12T06:27:14.799Z,7.00
2023-08-12T06:29:42.864Z,6.82
2023-08-12T06:32:14.286Z,6.53
2023-08-12T06:34:43.914Z,7.97
2023-08-12T06:37:11.941Z,5.90
2023-08-12T06:39:40.110Z,6.40
2023-08-12T06:42:08.830Z,9.93
2023-08-12T06:44:36.939Z,7.65
2023-08-12T06:47:05.081Z,10.82
2023-08-12T06:49:33.112Z,6.40
2023-08-12T06:52:02.510Z,6.72
2023-08-12T06:54:30.629Z,5.93
2023-08-12T06:56:58.687Z,5.78
2023-08-12T06:59:26.764Z,5.72
2023-08-12T07:01:54.830Z,8.00
2023-08-12T07:04:22.879Z,6.22
2023-08-12T07:06:50.925Z,6.82
2023-08-12T07:09:22.299Z,7.93
2023-08-12T07:11:50.414Z,6.85
2023-08-12T07:14:18.466Z,5.95
2023-08-12T07:16:46.493Z,7.85
2023-08-12T07:19:16.638Z,6.68
2023-08-12T07:21:54.212Z,6.50
2023-08-12T07:24:26.071Z,6.40
2023-08-12T07:26:54.153Z,7.13
2023-08-12T07:29:22.927Z,6.78
2023-08-12T07:31:57.405Z,6.32
2023-08-12T07:34:31.531Z,6.07
2023-08-12T07:37:01.117Z,7.53
2023-08-12T07:39:30.617Z,6.78
2023-08-12T07:41:58.688Z,7.15
2023-08-12T07:44:26.844Z,6.38
2023-08-12T07:46:54.953Z,7.72
2023-08-12T07:49:23.482Z,7.32
2023-08-12T07:51:51.797Z,8.90
2023-08-12T07:54:19.869Z,8.30
2023-08-12T07:56:49.283Z,6.90
2023-08-12T07:59:17.351Z,11.82
2023-08-12T08:01:45.401Z,5.70
2023-08-12T08:04:13.560Z,5.10
2023-08-12T08:06:41.620Z,6.68
2023-08-12T08:09:15.830Z,6.57
2023-08-12T08:11:43.858Z,6.88
2023-08-12T08:14:13.314Z,7.05
2023-08-12T08:16:42.986Z,5.60
2023-08-12T08:19:13.374Z,5.97
2023-08-12T08:21:42.202Z,6.55
2023-08-12T08:24:12.389Z,6.45
2023-08-12T08:26:41.676Z,6.68
2023-08-12T08:29:09.998Z,8.27
2023-08-12T08:31:39.740Z,7.07
2023-08-12T08:34:08.212Z,6.07
2023-08-12T08:36:36.230Z,5.97
2023-08-12T08:39:05.122Z,6.82
2023-08-12T08:41:34.427Z,8.85
2023-08-12T08:44:09.453Z,5.93
2023-08-12T08:46:39.344Z,6.00
2023-08-12T08:49:09.168Z,5.43
2023-08-12T08:51:37.398Z,9.20
2023-08-12T08:54:06.397Z,6.82
2023-08-12T08:56:36.892Z,7.75
2023-08-12T08:59:06.816Z,6.53
2023-08-12T09:01:37.998Z,7.65
2023-08-12T09:04:09.014Z,6.28
2023-08-12T09:06:39.276Z,6.47
2023-08-12T09:09:11.542Z,7.03
2023-08-12T09:11:46.641Z,6.90
2023-08-12T09:14:14.886Z,6.38
2023-08-12T09:16:42.921Z,10.73
2023-08-12T09:19:12.316Z,6.03
2023-08-12T09:21:43.449Z,5.95
2023-08-12T09:24:11.478Z,6.68
2023-08-12T09:26:39.904Z,6.50
2023-08-12T09:29:09.961Z,8.82
2023-08-12T09:31:38.065Z,8.63
2023-08-12T09:34:08.523Z,7.47
2023-08-12T09:36:37.970Z,5.88
2023-08-12T09:39:09.987Z,9.63
2023-08-12T09:41:39.545Z,6.43
2023-08-12T09:44:07.942Z,6.15
2023-08-12T09:46:36.120Z,6.55
2023-08-12T09:49:05.598Z,7.63
2023-08-12T09:51:38.326Z,6.22
2023-08-12T09:54:07.129Z,8.30
2023-08-12T09:56:39.334Z,9.07
2023-08-12T09:59:08.415Z,5.43
2023-08-12T10:01:45.203Z,5.57
2023-08-12T10:04:16.933Z,5.28
2023-08-12T10:06:49.788Z,5.43
2023-08-12T10:09:19.365Z,6.47
2023-08-12T10:11:48.178Z,6.18
2023-08-12T10:14:17.499Z,6.45
2023-08-12T10:16:48.953Z,5.75
2023-08-12T10:19:18.297Z,6.65
2023-08-12T10:21:58.060Z,5.80
2023-08-12T10:24:26.509Z,6.82
2023-08-12T10:27:05.114Z,7.57
2023-08-12T10:29:33.150Z,5.97
2023-08-12T10:32:13.281Z,6.70
2023-08-12T10:34:57.356Z,5.85
2023-08-12T10:37:34.938Z,5.75
2023-08-12T10:40:22.853Z,5.80
2023-08-12T10:42:54.274Z,5.95
2023-08-12T10:45:50.760Z,8.07
2023-08-12T10:48:21.127Z,9.02
2023-08-12T10:50:53.726Z,5.70
2023-08-12T10:53:32.725Z,8.23
2023-08-12T10:56:03.016Z,7.20
2023-08-12T10:58:32.758Z,7.88
2023-08-12T11:01:00.965Z,9.40
2023-08-12T11:03:36.446Z,7.55
2023-08-12T11:06:06.988Z,6.68
2023-08-12T11:08:36.578Z,5.90
2023-08-12T11:11:22.279Z,6.35
2023-08-12T11:13:55.487Z,5.25
2023-08-12T11:16:45.165Z,6.75
2023-08-12T11:19:14.572Z,5.95
2023-08-12T11:21:43.993Z,9.48
2023-08-12T11:24:13.708Z,6.30
2023-08-12T11:26:47.320Z,5.90
2023-08-12T11:29:15.911Z,6.10
2023-08-12T11:31:44.033Z,6.30
2023-08-12T11:34:12.582Z,6.25
2023-08-12T11:36:44.629Z,6.65
2023-08-12T11:39:14.120Z,5.40
2023-08-12T11:41:42.168Z,5.97
2023-08-12T11:44:19.152Z,6.10
2023-08-12T11:46:47.209Z,5.75
2023-08-12T11:49:15.324Z,6.13
2023-08-12T11:51:44.586Z,6.30
2023-08-12T11:54:14.569Z,5.38
2023-08-12T11:56:43.087Z,9.15
2023-08-12T11:59:12.284Z,13.85
2023-08-12T12:01:40.747Z,7.20
2023-08-12T12:04:12.619Z,6.05
2023-08-12T12:06:40.853Z,8.35
2023-08-12T12:09:19.501Z,9.10
2023-08-12T12:12:07.271Z,6.63
2023-08-12T12:14:48.215Z,6.07
2023-08-12T12:17:47.340Z,7.45
2023-08-12T12:20:24.226Z,6.40
2023-08-12T12:23:00.943Z,7.00
2023-08-12T12:26:01.699Z,5.90
2023-08-12T12:28:41.823Z,7.00
2023-08-12T12:31:31.259Z,8.55
2023-08-12T12:34:06.539Z,5.18
2023-08-12T12:36:40.971Z,6.28
2023-08-12T12:39:18.714Z,5.13
2023-08-12T12:42:01.880Z,6.60
2023-08-12T12:44:42.230Z,5.47
2023-08-12T12:47:27.233Z,5.60
2023-08-12T12:50:01.688Z,5.82
2023-08-12T12:52:33.713Z,9.95
2023-08-12T12:55:07.699Z,6.93
2023-08-12T12:57:44.866Z,7.70
2023-08-12T13:00:23.067Z,6.75
2023-08-12T13:03:29.713Z,5.53
2023-08-12T13:06:04.869Z,4.75
2023-08-12T13:08:39.274Z,5.00
2023-08-12T13:11:16.857Z,5.90
2023-08-12T13:13:53.988Z,4.18
2023-08-12T13:16:33.637Z,5.00
2023-08-12T13:19:13.732Z,5.25
2023-08-12T13:21:48.256Z,6.05
2023-08-12T13:24:23.456Z,4.38
2023-08-12T13:27:01.326Z,4.10
2023-08-12T13:29:39.049Z,6.50
2023-08-12T13:32:16.639Z,4.05
2023-08-12T13:35:05.609Z,6.25
2023-08-12T13:37:44.121Z,5.28
2023-08-12T13:40:31.231Z,5.78
2023-08-12T13:43:07.748Z,5.47
2023-08-12T13:46:00.087Z,4.15
2023-08-12T13:48:42.651Z,4.57
2023-08-12T13:51:24.133Z,4.45
2023-08-12T13:54:10.624Z,4.70
2023-08-12T13:59:49.176Z,4.65
2023-08-12T14:02:27.908Z,4.50
2023-08-12T14:05:20.136Z,4.30
2023-08-12T14:07:56.503Z,6.43
2023-08-12T14:10:50.560Z,4.60
2023-08-12T14:13:48.951Z,4.63
2023-08-12T14:16:17.100Z,4.13
2023-08-12T14:18:45.139Z,5.22
2023-08-12T14:21:14.599Z,5.63
2023-08-12T14:23:42.636Z,4.75
2023-08-12T14:26:10.639Z,3.80
2023-08-12T14:28:38.604Z,5.40
2023-08-12T14:31:06.716Z,6.05
2023-08-12T14:33:34.748Z,5.28
2023-08-12T14:36:02.800Z,5.97
2023-08-12T14:38:33.806Z,4.32
2023-08-12T14:41:02.024Z,6.03
2023-08-12T14:43:31.042Z,4.47
2023-08-12T14:45:59.152Z,5.07
2023-08-12T14:48:27.203Z,4.63
2023-08-12T14:50:55.247Z,5.75
2023-08-12T14:53:23.324Z,5.13
2023-08-12T14:55:52.762Z,4.65
2023-08-12T14:58:20.829Z,4.95
2023-08-12T15:00:49.439Z,4.40
2023-08-12T15:03:25.578Z,5.05
2023-08-12T15:06:02.168Z,5.85
2023-08-12T15:08:31.488Z,5.25
2023-08-12T15:11:00.914Z,6.97
2023-08-12T15:13:28.971Z,5.43
2023-08-12T15:15:57.452Z,6.40
2023-08-12T15:18:25.763Z,7.15
2023-08-12T15:20:53.819Z,5.20
2023-08-12T15:23:21.921Z,5.65
2023-08-12T15:25:49.950Z,5.38
2023-08-12T15:28:19.298Z,4.90
2023-08-12T15:30:50.444Z,5.28
2023-08-12T15:33:18.654Z,6.05
2023-08-12T15:35:46.691Z,7.32
2023-08-12T15:38:14.691Z,5.53
2023-08-12T15:40:42.860Z,5.32
2023-08-12T15:43:11.887Z,7.22
2023-08-12T15:45:43.019Z,7.85
2023-08-12T15:48:11.463Z,7.57
2023-08-12T15:50:41.977Z,6.60
2023-08-12T15:53:11.761Z,8.07
2023-08-12T15:55:39.777Z,6.03
2023-08-12T15:58:07.798Z,6.45
2023-08-12T16:00:35.831Z,6.45
2023-08-12T16:03:05.773Z,6.75
2023-08-12T16:05:36.472Z,5.88
2023-08-12T16:08:04.861Z,7.72
2023-08-12T16:10:32.904Z,6.00
2023-08-12T16:13:00.932Z,4.82
2023-08-12T16:15:29.724Z,7.13
2023-08-12T16:17:57.827Z,5.85
2023-08-12T16:20:27.267Z,6.70
2023-08-12T16:22:55.339Z,4.57
2023-08-12T16:25:23.396Z,5.25
2023-08-12T16:27:52.467Z,5.35
2023-08-12T16:30:20.696Z,7.82
2023-08-12T16:32:48.810Z,6.10
2023-08-12T16:35:17.040Z,4.95
2023-08-12T16:37:46.495Z,6.32
2023-08-12T16:40:14.762Z,5.95
2023-08-12T16:42:42.775Z,5.53
2023-08-12T16:45:11.680Z,7.47
2023-08-12T16:47:39.769Z,7.13
2023-08-12T16:50:08.806Z,5.68
2023-08-12T16:52:36.886Z,6.40
2023-08-12T16:55:06.975Z,5.93
2023-08-12T16:57:35.028Z,6.90
2023-08-12T17:00:05.816Z,5.93
2023-08-12T17:02:34.116Z,6.18
2023-08-12T17:05:02.193Z,7.13
2023-08-12T17:07:30.244Z,6.47
2023-08-12T17:09:58.951Z,5.70
2023-08-12T17:12:28.408Z,6.80
2023-08-12T17:14:56.421Z,5.97
2023-08-12T17:17:24.636Z,5.97
2023-08-12T17:19:52.700Z,7.03
2023-08-12T17:22:22.158Z,4.80
2023-08-12T17:24:50.377Z,6.35
2023-08-12T17:27:18.386Z,6.03
2023-08-12T17:29:47.859Z,6.43
2023-08-12T17:32:15.970Z,6.70
2023-08-12T17:34:44.348Z,5.15
2023-08-12T17:37:12.384Z,7.60
2023-08-12T17:39:40.599Z,6.95
2023-08-12T17:42:08.688Z,6.35
2023-08-12T17:44:38.726Z,6.32
2023-08-12T17:47:08.329Z,7.40
2023-08-12T17:49:36.451Z,5.57
2023-08-12T17:52:04.701Z,8.93
2023-08-12T17:54:32.762Z,7.05
2023-08-12T17:57:01.045Z,4.75
2023-08-12T17:59:29.216Z,7.38
2023-08-12T18:01:57.254Z,8.68
2023-08-12T18:04:26.751Z,7.00
2023-08-12T18:06:54.841Z,6.63
2023-08-12T18:09:22.877Z,5.70
2023-08-12T18:11:50.934Z,7.03
2023-08-12T18:14:22.323Z,7.65
2023-08-12T18:16:50.588Z,7.15
2023-08-12T18:19:18.702Z,6.28
2023-08-12T18:21:48.130Z,7.13
2023-08-12T18:24:16.381Z,6.93
2023-08-12T18:26:45.509Z,8.52
2023-08-12T18:29:13.502Z,9.60
2023-08-12T18:31:43.292Z,6.72
2023-08-12T18:34:11.327Z,5.63
2023-08-12T18:36:39.349Z,6.60
2023-08-12T18:39:08.887Z,6.35
2023-08-12T18:41:41.859Z,7.07
2023-08-12T18:44:09.857Z,7.40
2023-08-12T18:46:37.981Z,7.82
2023-08-12T18:49:06.429Z,6.50
2023-08-12T18:51:34.531Z,6.38
2023-08-12T18:54:04.651Z,6.40
2023-08-12T18:56:35.227Z,7.47
2023-08-12T18:59:03.238Z,6.35
2023-08-12T19:01:31.299Z,6.05
2023-08-12T19:03:59.351Z,6.47
2023-08-12T19:06:27.535Z,7.88
2023-08-12T19:08:56.343Z,6.38
2023-08-12T19:11:25.174Z,6.40
2023-08-12T19:13:54.702Z,6.78
2023-08-12T19:16:24.903Z,7.22
2023-08-12T19:18:52.934Z,6.75
2023-08-12T19:21:21.118Z,7.65
2023-08-12T19:23:51.373Z,10.70
2023-08-12T19:26:20.103Z,14.52
2023-08-12T19:28:48.320Z,16.60
2023-08-12T19:31:18.924Z,19.27
2023-08-12T19:33:47.022Z,19.70
2023-08-12T19:36:15.040Z,17.67
2023-08-12T19:38:43.748Z,16.27
2023-08-12T19:41:11.927Z,13.70
2023-08-12T19:43:40.787Z,14.75
2023-08-12T19:46:09.057Z,15.40
2023-08-12T19:48:38.934Z,14.80
2023-08-12T19:51:06.941Z,14.02
2023-08-12T19:53:37.164Z,11.32
2023-08-12T19:56:05.406Z,12.60
2023-08-12T19:58:45.802Z,9.10
2023-08-12T20:01:14.089Z,8.77
2023-08-12T20:03:43.652Z,7.05
2023-08-12T20:06:12.688Z,8.23
2023-08-12T20:08:40.943Z,6.80
2023-08-12T20:11:09.186Z,7.25
2023-08-12T20:13:37.284Z,10.00
2023-08-12T20:16:05.397Z,8.07
2023-08-12T20:18:33.517Z,8.77
2023-08-12T20:21:03.055Z,7.93
2023-08-12T20:23:31.626Z,6.60
2023-08-12T20:25:59.738Z,9.48
2023-08-12T20:28:28.344Z,8.00
2023-08-12T20:30:56.393Z,10.15
2023-08-12T20:33:25.699Z,7.38
2023-08-12T20:35:55.939Z,7.28
2023-08-12T20:38:25.419Z,9.85
2023-08-12T20:40:53.481Z,7.47
2023-08-12T20:43:21.505Z,7.38
2023-08-12T20:45:49.586Z,8.00
2023-08-12T20:48:18.031Z,6.57
2023-08-12T20:50:48.975Z,7.35
2023-08-12T20:53:17.475Z,6.43
2023-08-12T20:55:46.925Z,8.73
2023-08-12T20:58:15.016Z,9.30
2023-08-12T21:00:43.238Z,13.75
2023-08-12T21:03:11.720Z,8.65
2023-08-12T21:05:40.953Z,9.82
2023-08-12T21:08:09.330Z,7.70
2023-08-12T21:10:37.384Z,11.75
2023-08-12T21:13:06.896Z,10.27
2023-08-12T21:15:34.954Z,12.38
2023-08-12T21:18:04.162Z,40.22
2023-08-12T21:20:33.322Z,44.83
2023-08-12T21:23:01.316Z,29.60
2023-08-12T21:25:29.364Z,28.20
2023-08-12T21:28:00.426Z,11.48
2023-08-12T21:30:29.956Z,9.77
2023-08-12T21:33:01.080Z,7.88
2023-08-12T21:35:29.155Z,7.10
2023-08-12T21:37:57.852Z,7.45
2023-08-12T21:40:30.033Z,7.20
2023-08-12T21:42:59.068Z,7.13
2023-08-12T21:45:31.413Z,10.10
2023-08-12T21:48:01.178Z,7.88
2023-08-12T21:50:29.718Z,10.27
2023-08-12T21:52:57.776Z,8.30
2023-08-12T21:55:26.376Z,8.82
2023-08-12T21:57:56.488Z,8.48
2023-08-12T22:00:24.639Z,9.70
2023-08-12T22:03:01.643Z,14.27
2023-08-12T22:05:31.644Z,10.68
2023-08-12T22:08:00.718Z,8.10
2023-08-12T22:10:28.740Z,8.10
2023-08-12T22:12:56.784Z,6.60
2023-08-12T22:15:25.547Z,9.57
2023-08-12T22:17:53.915Z,13.13
2023-08-12T22:20:23.595Z,11.73
2023-08-12T22:23:01.546Z,9.13
2023-08-12T22:25:46.660Z,7.90
2023-08-12T22:28:14.756Z,8.02
2023-08-12T22:30:42.847Z,7.50
2023-08-12T22:33:11.261Z,6.68
2023-08-12T22:35:40.714Z,6.30
2023-08-12T22:38:09.306Z,9.50
2023-08-12T22:40:38.469Z,9.23
2023-08-12T22:43:07.802Z,7.07
2023-08-12T22:45:41.374Z,8.60
2023-08-12T22:48:10.463Z,8.50
2023-08-12T22:50:39.981Z,6.72
2023-08-12T22:53:08.147Z,8.63
2023-08-12T22:55:37.289Z,7.47
2023-08-12T22:58:07.517Z,6.55
2023-08-12T23:00:36.914Z,7.13
2023-08-12T23:03:05.765Z,10.15
2023-08-12T23:05:34.016Z,8.63
2023-08-12T23:08:03.819Z,7.20
2023-08-12T23:10:32.274Z,10.13
2023-08-12T23:13:00.876Z,7.78
2023-08-12T23:15:32.107Z,6.65
2023-08-12T23:18:00.310Z,8.43
2023-08-12T23:20:28.837Z,7.32
2023-08-12T23:22:57.035Z,8.60
2023-08-12T23:25:29.100Z,7.15
2023-08-12T23:27:58.278Z,9.07
2023-08-12T23:30:26.447Z,7.47
2023-08-12T23:32:56.738Z,7.18
2023-08-12T23:35:24.889Z,10.27
2023-08-12T23:37:53.206Z,6.93
2023-08-12T23:40:21.590Z,8.45
2023-08-12T23:42:59.120Z,10.73
2023-08-12T23:45:30.257Z,7.32
2023-08-12T23:47:58.826Z,10.85
2023-08-12T23:50:41.427Z,8.52
2023-08-12T23:53:09.859Z,9.60
2023-08-12T23:55:38.047Z,8.27
2023-08-12T23:58:07.629Z,10.00
